Pagrindinis puslapis
METAR-TAF:

METAR-TAF

Oro uostai :

Charbinas, Kinija

platuma: 45-45N, ilguma: 126-46E, Aukštis: 143 m

Dabartinis oras

Ataskaita buvo paskelbta 48 minutes, ne 14:00 UTC
Vėjas 8 kt iš Pietų
Temperatūra 23°C
Drėgmė 38%
Slėgis 1009 hPa
Matomumas 10 km arba daugiau
nėra debesų žemiau 1500 m ir nėra kamuolinių lietaus debesų

METAR: ZYHB 291400Z 18004MPS CAVOK 23/08 Q1009 NOSIG

Laikas: 22:48 (14:48 UTC)

Prognozė

Ataskaita buvo paskelbta 5 valandos ir 35 minutes, ne 09:13 UTC
Prognozė galioja nuo 29 metu 12 UTC su 30 metu 12 UTC
Vėjas 12 kt iš Pietų
Matomumas: 6000 m
Išsisklaidę debesys ne aukštis 3000 ft
Tapsmas
nuo 30 metu 01 UTC su 30 metu 02 UTC
Vėjas 21 kt iš Pietų/Pietvakarių su gūsio iki 33 kt

TAF: ZYHB 290913Z 2912/3012 18006MPS 6000 SCT030 TX30/3006Z TN17/2921Z BECMG 3001/3002 21011G17MPS

Orai ataskaitas ir orų prognozės (METAR, TAF).

turimą stotys yra geltonos ir raudonos taškus žemėlapyje.

Perkelti pele per norėdami pamatyti stoties vardą.

Tada spustelėkite, norėdami matyti oro stebėjimo ir prognozės.

Norėdami pakeisti žemėlapį: spustelėkite ant žalios mygtukų su juodo kryžiaus žemyn,; žalią mygtuką su brūkšneliu, jei norite nutolinti; arba žalių rodyklių gretimoms žemėlapius.


METAR-TAF: